This is the latest recevied weather packets stored in our database for station/object TA6B-11. If no packets are shown the sender has not sent any weather packets the latest 1 day(s).
| Time | Temp. | Humidity | Pressure | Rain* | Wind** | Luminosity | Snow |
|---|---|---|---|---|---|---|---|
| 1778071297 | 18.33° C | 54% | 1005 hPa | - | - | 0 W/m² | - |
| 1778070972 | 18.33° C | 54% | 1005 hPa | - | - | 0 W/m² | - |
| 1778070648 | 23.89° C | 99% | - | - | - | - | - |
| 1778070072 | 18.33° C | 55% | 1005 hPa | - | - | 0 W/m² | - |
| 1778069422 | 18.33° C | 55% | 1005 hPa | - | - | 0 W/m² | - |
| 1778068974 | 18.33° C | 56% | 1005 hPa | - | - | 0 W/m² | - |
| 1778067338 | 18.33° C | 52% | 1005 hPa | - | - | 0 W/m² | - |
| 1778066683 | 18.33° C | 51% | 1005 hPa | - | - | 0 W/m² | - |
| 1778065706 | 18.33° C | 51% | 1005 hPa | - | - | 0 W/m² | - |
| 1778065054 | 17.78° C | 52% | 1005 hPa | - | - | 0 W/m² | - |
| 1778061617 | 17.78° C | 53% | 1005 hPa | - | - | 0 W/m² | - |
| 1778060264 | 17.78° C | 54% | 1005 hPa | - | - | 0 W/m² | - |
| 1778057974 | 18.89° C | 52% | 1005 hPa | - | - | 0 W/m² | - |
| 1778051653 | 17.78° C | 57% | 1004 hPa | - | - | 0 W/m² | - |
| 1778049998 | 17.22° C | 56% | 1004 hPa | - | - | 0 W/m² | - |
| 1778049232 | 17.22° C | 58% | 1004 hPa | - | - | 0 W/m² | - |
| 1778047680 | 16.11° C | 61% | 1004 hPa | - | - | 0 W/m² | - |
| 1778047057 | 15.56° C | 64% | 1004 hPa | - | - | 0 W/m² | - |
| 1778046455 | 15° C | 65% | 1004 hPa | - | - | 0 W/m² | - |
| 1778045776 | 15° C | 65% | 1004 hPa | - | - | 0 W/m² | - |
| 1778043823 | 15° C | 65% | 1004 hPa | - | - | 0 W/m² | - |
| 1778043042 | 15° C | 65% | 1004 hPa | - | - | 0 W/m² | - |
| 1778041400 | 15° C | 65% | 1004 hPa | - | - | 0 W/m² | - |
| 1778039971 | 14.44° C | 65% | 1003 hPa | - | - | 0 W/m² | - |
| 1778039156 | 13.89° C | 66% | 1003 hPa | - | - | 0 W/m² | - |
* Rain since midnight (hover to see other rain measurements)
** Current wind speed in m/s (hover to see current wind gust speed)